N505ZG MMTJ-MMML
Flight info
| Callsign | N505ZG |
|---|---|
| Flight time | 0h 35m |
| Altitude | 6500 |
| Route | DCT |
| Aircraft | C208/L-SDFGR/C |
Departure
| Time | 2026-04-30 18:17 |
|---|---|
| Airport | General Abelardo L. Rodriguez International Airport (MMTJ) |
Arrival
| Time | 2026-04-30 18:53 |
|---|---|
| Airport | General Rodolfo Sánchez Taboada International Airport (MMML) |
| Time | Latitude | Longitude | Altitude | Speed | Heading |
|---|---|---|---|---|---|
| 2026-04-30 18:06 | 32.54517 | -116.97925 | 497 ft | 0 kts | 97° |
| 2026-04-30 18:11 | 32.54546 | -116.97939 | 497 ft | 4 kts | 276° |
| 2026-04-30 18:11 | 32.54456 | -116.97979 | 497 ft | 0 kts | 190° |
| 2026-04-30 18:12 | 32.54364 | -116.97686 | 496 ft | 19 kts | 98° |
| 2026-04-30 18:13 | 32.54319 | -116.97348 | 497 ft | 27 kts | 99° |
| 2026-04-30 18:13 | 32.54247 | -116.96801 | 496 ft | 30 kts | 100° |
| 2026-04-30 18:14 | 32.54185 | -116.96326 | 497 ft | 29 kts | 99° |
| 2026-04-30 18:15 | 32.54136 | -116.96148 | 497 ft | 1 kts | 176° |
| 2026-04-30 18:15 | 32.54096 | -116.96153 | 496 ft | 0 kts | 189° |
| 2026-04-30 18:16 | 32.54003 | -116.96222 | 494 ft | 8 kts | 276° |
| 2026-04-30 18:16 | 32.54043 | -116.96533 | 491 ft | 65 kts | 279° |
| 2026-04-30 18:17 | 32.54130 | -116.97197 | 640 ft | 94 kts | 276° |
| 2026-04-30 18:17 | 32.54235 | -116.98044 | 879 ft | 110 kts | 277° |
| 2026-04-30 18:17 | 32.53548 | -116.99454 | 1554 ft | 118 kts | 195° |
| 2026-04-30 18:18 | 32.52728 | -116.99652 | 1884 ft | 124 kts | 176° |
| 2026-04-30 18:18 | 32.52054 | -116.99048 | 2215 ft | 131 kts | 113° |
| 2026-04-30 18:18 | 32.51795 | -116.97995 | 2554 ft | 134 kts | 100° |
| 2026-04-30 18:18 | 32.51728 | -116.96903 | 2894 ft | 135 kts | 91° |
| 2026-04-30 18:19 | 32.51808 | -116.95805 | 3264 ft | 130 kts | 72° |
| 2026-04-30 18:19 | 32.52026 | -116.94783 | 3650 ft | 124 kts | 73° |
| 2026-04-30 18:19 | 32.52221 | -116.93820 | 4044 ft | 119 kts | 73° |
| 2026-04-30 18:19 | 32.52414 | -116.92882 | 4430 ft | 115 kts | 73° |
| 2026-04-30 18:20 | 32.52605 | -116.91969 | 4839 ft | 112 kts | 73° |
| 2026-04-30 18:20 | 32.52794 | -116.91076 | 5175 ft | 114 kts | 73° |
| 2026-04-30 18:20 | 32.52976 | -116.90150 | 5492 ft | 117 kts | 80° |
| 2026-04-30 18:20 | 32.53070 | -116.89190 | 5820 ft | 118 kts | 81° |
| 2026-04-30 18:21 | 32.53172 | -116.88221 | 6148 ft | 119 kts | 81° |
| 2026-04-30 18:21 | 32.53276 | -116.87239 | 6472 ft | 121 kts | 81° |
| 2026-04-30 18:21 | 32.53392 | -116.86178 | 6507 ft | 140 kts | 81° |
| 2026-04-30 18:21 | 32.53526 | -116.84972 | 6514 ft | 155 kts | 81° |
| 2026-04-30 18:22 | 32.53638 | -116.83675 | 6516 ft | 159 kts | 85° |
| 2026-04-30 18:22 | 32.53738 | -116.81010 | 6490 ft | 163 kts | 86° |
| 2026-04-30 18:22 | 32.53793 | -116.79672 | 6501 ft | 162 kts | 86° |
| 2026-04-30 18:23 | 32.53852 | -116.78324 | 6489 ft | 164 kts | 85° |
| 2026-04-30 18:23 | 32.53957 | -116.76982 | 6487 ft | 162 kts | 83° |
| 2026-04-30 18:23 | 32.54115 | -116.75649 | 6485 ft | 162 kts | 79° |
| 2026-04-30 18:23 | 32.54315 | -116.74344 | 6486 ft | 163 kts | 79° |
| 2026-04-30 18:24 | 32.54718 | -116.71673 | 6484 ft | 167 kts | 80° |
| 2026-04-30 18:24 | 32.54772 | -116.70305 | 6490 ft | 167 kts | 88° |
| 2026-04-30 18:24 | 32.54766 | -116.68923 | 6486 ft | 167 kts | 89° |
| 2026-04-30 18:25 | 32.54758 | -116.67538 | 6476 ft | 168 kts | 88° |
| 2026-04-30 18:25 | 32.54729 | -116.64818 | 6471 ft | 165 kts | 89° |
| 2026-04-30 18:25 | 32.54712 | -116.63482 | 6470 ft | 162 kts | 89° |
| 2026-04-30 18:26 | 32.54670 | -116.60804 | 6459 ft | 162 kts | 89° |
| 2026-04-30 18:26 | 32.54650 | -116.59485 | 6460 ft | 161 kts | 89° |
| 2026-04-30 18:26 | 32.54632 | -116.58141 | 6459 ft | 163 kts | 89° |
| 2026-04-30 18:27 | 32.54563 | -116.55441 | 6459 ft | 167 kts | 94° |
| 2026-04-30 18:27 | 32.54402 | -116.54088 | 6455 ft | 166 kts | 97° |
| 2026-04-30 18:28 | 32.54062 | -116.51385 | 6453 ft | 165 kts | 96° |
| 2026-04-30 18:28 | 32.53891 | -116.50032 | 6455 ft | 165 kts | 96° |
| 2026-04-30 18:28 | 32.53554 | -116.47340 | 6454 ft | 166 kts | 96° |
| 2026-04-30 18:29 | 32.53381 | -116.45985 | 6450 ft | 166 kts | 95° |
| 2026-04-30 18:29 | 32.52850 | -116.41974 | 6451 ft | 163 kts | 96° |
| 2026-04-30 18:30 | 32.52560 | -116.39760 | 6452 ft | 164 kts | 96° |
| 2026-04-30 18:30 | 32.52139 | -116.36650 | 6438 ft | 164 kts | 96° |
| 2026-04-30 18:31 | 32.51959 | -116.35319 | 6453 ft | 163 kts | 96° |
| 2026-04-30 18:31 | 32.51601 | -116.32658 | 6453 ft | 165 kts | 96° |
| 2026-04-30 18:32 | 32.51228 | -116.29967 | 6440 ft | 163 kts | 96° |
| 2026-04-30 18:32 | 32.50972 | -116.28672 | 6442 ft | 162 kts | 108° |
| 2026-04-30 18:32 | 32.49998 | -116.26243 | 6442 ft | 166 kts | 112° |
| 2026-04-30 18:33 | 32.49491 | -116.25001 | 6434 ft | 167 kts | 112° |
| 2026-04-30 18:33 | 32.48488 | -116.22527 | 6446 ft | 166 kts | 112° |
| 2026-04-30 18:33 | 32.48006 | -116.21282 | 6443 ft | 165 kts | 109° |
| 2026-04-30 18:34 | 32.47882 | -116.20403 | 6444 ft | 164 kts | 89° |
| 2026-04-30 18:34 | 32.48498 | -116.17350 | 6500 ft | 165 kts | 67° |
| 2026-04-30 18:34 | 32.48807 | -116.16502 | 6504 ft | 168 kts | 63° |
| 2026-04-30 18:35 | 32.49381 | -116.15305 | 6495 ft | 170 kts | 58° |
| 2026-04-30 18:35 | 32.50019 | -116.14139 | 6504 ft | 169 kts | 52° |
| 2026-04-30 18:35 | 32.50759 | -116.13039 | 6479 ft | 170 kts | 49° |
| 2026-04-30 18:36 | 32.52282 | -116.10933 | 6494 ft | 168 kts | 50° |
| 2026-04-30 18:36 | 32.53034 | -116.09879 | 6495 ft | 171 kts | 50° |
| 2026-04-30 18:36 | 32.54260 | -116.08157 | 6483 ft | 169 kts | 50° |
| 2026-04-30 18:37 | 32.54908 | -116.07021 | 6475 ft | 167 kts | 69° |
| 2026-04-30 18:37 | 32.55127 | -116.05683 | 6472 ft | 167 kts | 79° |
| 2026-04-30 18:37 | 32.55305 | -116.04309 | 6482 ft | 168 kts | 79° |
| 2026-04-30 18:37 | 32.55421 | -116.02954 | 6486 ft | 171 kts | 90° |
| 2026-04-30 18:38 | 32.55256 | -116.01551 | 6474 ft | 173 kts | 96° |
| 2026-04-30 18:38 | 32.55118 | -116.00157 | 6485 ft | 169 kts | 94° |
| 2026-04-30 18:38 | 32.55080 | -115.98764 | 6472 ft | 167 kts | 86° |
| 2026-04-30 18:38 | 32.55129 | -115.97389 | 6476 ft | 167 kts | 85° |
| 2026-04-30 18:39 | 32.55177 | -115.96009 | 6473 ft | 168 kts | 86° |
| 2026-04-30 18:39 | 32.55232 | -115.94622 | 6470 ft | 169 kts | 86° |
| 2026-04-30 18:39 | 32.55284 | -115.93236 | 6459 ft | 169 kts | 86° |
| 2026-04-30 18:39 | 32.55341 | -115.91849 | 6460 ft | 167 kts | 86° |
| 2026-04-30 18:40 | 32.55400 | -115.90478 | 6459 ft | 166 kts | 84° |
| 2026-04-30 18:40 | 32.55490 | -115.89110 | 6467 ft | 167 kts | 84° |
| 2026-04-30 18:40 | 32.55584 | -115.87721 | 6458 ft | 169 kts | 84° |
| 2026-04-30 18:40 | 32.55707 | -115.86349 | 6455 ft | 170 kts | 80° |
| 2026-04-30 18:41 | 32.55923 | -115.84969 | 6446 ft | 169 kts | 78° |
| 2026-04-30 18:41 | 32.56143 | -115.83610 | 6449 ft | 166 kts | 78° |
| 2026-04-30 18:41 | 32.56365 | -115.82260 | 6372 ft | 165 kts | 78° |
| 2026-04-30 18:41 | 32.56575 | -115.80966 | 6242 ft | 158 kts | 78° |
| 2026-04-30 18:42 | 32.56775 | -115.79709 | 6105 ft | 153 kts | 78° |
| 2026-04-30 18:42 | 32.57150 | -115.77336 | 5828 ft | 134 kts | 78° |
| 2026-04-30 18:42 | 32.57317 | -115.76273 | 5683 ft | 128 kts | 78° |
| 2026-04-30 18:45 | 32.56974 | -115.66291 | 4445 ft | 126 kts | 108° |
| 2026-04-30 18:45 | 32.56676 | -115.65341 | 4437 ft | 120 kts | 108° |
| 2026-04-30 18:45 | 32.56387 | -115.64422 | 4427 ft | 118 kts | 108° |
| 2026-04-30 18:46 | 32.56103 | -115.63517 | 4428 ft | 119 kts | 108° |
| 2026-04-30 18:46 | 32.55820 | -115.62595 | 4425 ft | 117 kts | 108° |
| 2026-04-30 18:46 | 32.55541 | -115.61706 | 4423 ft | 113 kts | 108° |
| 2026-04-30 18:46 | 32.55266 | -115.60831 | 4421 ft | 113 kts | 108° |
| 2026-04-30 18:47 | 32.54990 | -115.59955 | 4427 ft | 115 kts | 108° |
| 2026-04-30 18:47 | 32.54708 | -115.59052 | 4425 ft | 118 kts | 108° |
| 2026-04-30 18:47 | 32.54427 | -115.58143 | 4427 ft | 118 kts | 108° |
| 2026-04-30 18:47 | 32.54144 | -115.57226 | 4427 ft | 120 kts | 108° |
| 2026-04-30 18:48 | 32.53887 | -115.56280 | 4424 ft | 122 kts | 98° |
| 2026-04-30 18:48 | 32.53806 | -115.55299 | 4501 ft | 116 kts | 92° |
| 2026-04-30 18:48 | 32.53735 | -115.54347 | 4330 ft | 119 kts | 91° |
| 2026-04-30 18:48 | 32.53716 | -115.53343 | 4234 ft | 119 kts | 88° |
| 2026-04-30 18:49 | 32.53644 | -115.52375 | 4142 ft | 119 kts | 95° |
| 2026-04-30 18:49 | 32.53534 | -115.51366 | 3868 ft | 127 kts | 95° |
| 2026-04-30 18:49 | 32.53452 | -115.50348 | 3668 ft | 121 kts | 94° |
| 2026-04-30 18:49 | 32.53387 | -115.49340 | 3348 ft | 125 kts | 92° |
| 2026-04-30 18:50 | 32.53329 | -115.48311 | 3080 ft | 127 kts | 96° |
| 2026-04-30 18:50 | 32.53248 | -115.47283 | 2786 ft | 125 kts | 94° |
| 2026-04-30 18:50 | 32.53206 | -115.46240 | 2420 ft | 128 kts | 91° |
| 2026-04-30 18:50 | 32.53198 | -115.45171 | 2145 ft | 128 kts | 91° |
| 2026-04-30 18:51 | 32.53144 | -115.44149 | 1877 ft | 125 kts | 98° |
| 2026-04-30 18:51 | 32.53020 | -115.43135 | 1644 ft | 123 kts | 98° |
| 2026-04-30 18:51 | 32.52976 | -115.42109 | 1241 ft | 128 kts | 90° |
| 2026-04-30 18:51 | 32.52998 | -115.41102 | 1018 ft | 114 kts | 88° |
| 2026-04-30 18:52 | 32.53267 | -115.40281 | 671 ft | 113 kts | 25° |
| 2026-04-30 18:52 | 32.53812 | -115.40617 | 446 ft | 96 kts | 278° |
| 2026-04-30 18:52 | 32.53812 | -115.41419 | 223 ft | 89 kts | 272° |
| 2026-04-30 18:52 | 32.53824 | -115.42057 | 50 ft | 65 kts | 271° |
| 2026-04-30 18:53 | 32.53825 | -115.42501 | 51 ft | 45 kts | 271° |
| 2026-04-30 18:53 | 32.53846 | -115.42597 | 50 ft | 8 kts | 98° |
| 2026-04-30 18:53 | 32.53825 | -115.42493 | 51 ft | 16 kts | 93° |
| 2026-04-30 18:53 | 32.53822 | -115.42388 | 51 ft | 10 kts | 89° |
| 2026-04-30 18:54 | 32.53822 | -115.42227 | 50 ft | 25 kts | 92° |
| 2026-04-30 18:54 | 32.53822 | -115.42021 | 48 ft | 11 kts | 91° |
| 2026-04-30 18:54 | 32.53818 | -115.41950 | 48 ft | 22 kts | 107° |
| 2026-04-30 18:54 | 32.53797 | -115.41830 | 46 ft | 0 kts | 76° |